createdAt,value
2023-01-01T00:01:45.962Z,14.01
2023-01-01T00:04:14.618Z,13.98
2023-01-01T00:06:42.599Z,13.94
2023-01-01T00:09:27.854Z,13.88
2023-01-01T00:11:54.387Z,13.88
2023-01-01T00:14:20.842Z,13.85
2023-01-01T00:16:47.253Z,13.85
2023-01-01T00:19:13.680Z,13.85
2023-01-01T00:21:40.279Z,13.83
2023-01-01T00:24:07.082Z,13.81
2023-01-01T00:26:35.492Z,13.80
2023-01-01T00:29:02.807Z,13.81
2023-01-01T00:31:29.262Z,13.87
2023-01-01T00:33:56.672Z,13.86
2023-01-01T00:36:25.032Z,13.85
2023-01-01T00:38:53.167Z,13.88
2023-01-01T00:41:20.233Z,13.88
2023-01-01T00:43:46.676Z,13.86
2023-01-01T00:46:13.944Z,13.88
2023-01-01T00:48:40.534Z,13.88
2023-01-01T00:51:07.556Z,13.88
2023-01-01T00:53:34.156Z,13.90
2023-01-01T00:56:00.585Z,13.88
2023-01-01T00:58:27.082Z,13.92
2023-01-01T01:00:54.000Z,13.92
2023-01-01T01:03:29.553Z,13.97
2023-01-01T01:05:57.494Z,13.94
2023-01-01T01:08:30.412Z,13.99
2023-01-01T01:11:07.395Z,14.02
2023-01-01T01:13:34.235Z,14.05
2023-01-01T01:16:01.032Z,14.06
2023-01-01T01:18:27.560Z,14.05
2023-01-01T01:20:54.804Z,14.05
2023-01-01T01:23:21.492Z,14.04
2023-01-01T01:25:48.970Z,14.03
2023-01-01T01:28:15.627Z,14.02
2023-01-01T01:30:42.261Z,14.00
2023-01-01T01:33:09.090Z,13.95
2023-01-01T01:35:35.824Z,13.91
2023-01-01T01:38:02.634Z,13.85
2023-01-01T01:40:29.214Z,13.81
2023-01-01T01:42:55.572Z,13.77
2023-01-01T01:45:22.027Z,13.75
2023-01-01T01:47:59.025Z,13.70
2023-01-01T01:50:32.800Z,13.70
2023-01-01T01:53:16.195Z,13.69
2023-01-01T01:55:50.885Z,13.67
2023-01-01T01:58:17.410Z,13.68
2023-01-01T02:00:43.820Z,13.65
2023-01-01T02:03:17.426Z,13.63
2023-01-01T02:05:44.673Z,13.63
2023-01-01T02:08:14.574Z,13.63
2023-01-01T02:10:41.128Z,13.63
2023-01-01T02:13:07.676Z,13.63
2023-01-01T02:15:44.441Z,13.62
2023-01-01T02:18:14.257Z,13.60
2023-01-01T02:21:03.439Z,13.58
2023-01-01T02:23:41.597Z,13.58
2023-01-01T02:26:24.261Z,13.55
2023-01-01T02:29:07.517Z,13.53
2023-01-01T02:31:40.218Z,13.53
2023-01-01T02:34:11.495Z,13.53
2023-01-01T02:36:44.469Z,13.54
2023-01-01T02:39:11.872Z,13.55
2023-01-01T02:41:41.725Z,13.53
2023-01-01T02:44:08.189Z,13.56
2023-01-01T02:46:36.165Z,13.60
2023-01-01T02:49:09.656Z,13.60
2023-01-01T02:51:49.016Z,13.57
2023-01-01T02:54:18.492Z,13.57
2023-01-01T02:56:51.726Z,13.56
2023-01-01T02:59:59.616Z,13.55
2023-01-01T03:02:32.767Z,13.55
2023-01-01T03:05:01.937Z,13.53
2023-01-01T03:07:53.005Z,13.53
2023-01-01T03:10:25.792Z,13.51
2023-01-01T03:13:08.285Z,13.51
2023-01-01T03:15:51.237Z,13.52
2023-01-01T03:18:24.564Z,13.51
2023-01-01T03:20:54.685Z,13.50
2023-01-01T03:23:30.438Z,13.54
2023-01-01T03:26:03.028Z,13.53
2023-01-01T03:28:35.582Z,13.54
2023-01-01T03:31:03.017Z,13.51
2023-01-01T03:33:44.325Z,13.51
2023-01-01T03:36:21.557Z,13.53
2023-01-01T03:38:58.205Z,13.53
2023-01-01T03:41:35.367Z,13.57
2023-01-01T03:44:20.432Z,13.56
2023-01-01T03:46:47.191Z,13.57
2023-01-01T03:49:15.118Z,13.55
2023-01-01T03:52:00.353Z,13.55
2023-01-01T03:54:45.422Z,13.61
2023-01-01T03:57:49.541Z,13.60
2023-01-01T04:00:20.024Z,13.57
2023-01-01T04:02:56.121Z,13.53
2023-01-01T04:05:24.485Z,13.52
2023-01-01T04:07:53.596Z,13.47
2023-01-01T04:10:20.435Z,13.42
2023-01-01T04:12:48.480Z,13.31
2023-01-01T04:15:19.897Z,13.23
2023-01-01T04:17:46.747Z,13.16
2023-01-01T04:20:14.322Z,13.11
2023-01-01T04:22:40.951Z,13.12
2023-01-01T04:25:08.374Z,13.11
2023-01-01T04:27:34.908Z,13.07
2023-01-01T04:30:01.472Z,13.02
2023-01-01T04:32:30.498Z,12.97
2023-01-01T04:34:56.895Z,12.88
2023-01-01T04:37:28.461Z,12.80
2023-01-01T04:39:59.877Z,12.74
2023-01-01T04:42:26.255Z,12.68
2023-01-01T04:44:52.728Z,12.64
2023-01-01T04:47:19.099Z,12.62
2023-01-01T04:49:45.459Z,12.59
2023-01-01T04:52:11.811Z,12.53
2023-01-01T04:54:38.240Z,12.49
2023-01-01T04:57:06.715Z,12.47
2023-01-01T04:59:33.064Z,12.45
2023-01-01T05:01:59.556Z,12.44
2023-01-01T05:04:26.028Z,12.44
2023-01-01T05:06:52.497Z,12.44
2023-01-01T05:09:18.860Z,12.43
2023-01-01T05:11:46.460Z,12.42
2023-01-01T05:14:12.866Z,12.40
2023-01-01T05:16:40.603Z,12.39
2023-01-01T05:19:08.160Z,12.39
2023-01-01T05:21:39.019Z,12.39
2023-01-01T05:24:08.275Z,12.38
2023-01-01T05:26:40.504Z,12.37
2023-01-01T05:29:13.681Z,12.37
2023-01-01T05:31:42.368Z,12.38
2023-01-01T05:36:38.654Z,12.38
2023-01-01T05:39:09.025Z,12.37
2023-01-01T05:41:38.738Z,12.35
2023-01-01T05:44:07.228Z,12.37
2023-01-01T05:46:34.048Z,12.35
2023-01-01T05:49:00.976Z,12.39
2023-01-01T05:51:29.359Z,12.36
2023-01-01T05:53:56.366Z,12.38
2023-01-01T05:56:23.157Z,12.37
2023-01-01T05:58:49.902Z,12.36
2023-01-01T06:01:17.803Z,12.36
2023-01-01T06:03:44.727Z,12.36
2023-01-01T06:06:13.935Z,12.35
2023-01-01T06:08:40.963Z,12.34
2023-01-01T06:11:11.105Z,12.34
2023-01-01T06:13:38.877Z,12.33
2023-01-01T06:16:05.690Z,12.31
2023-01-01T06:18:34.789Z,12.28
2023-01-01T06:21:05.474Z,12.27
2023-01-01T06:23:31.857Z,12.27
2023-01-01T06:26:14.130Z,12.26
2023-01-01T06:28:44.157Z,12.25
2023-01-01T06:31:12.929Z,12.25
2023-01-01T06:33:40.077Z,12.24
2023-01-01T06:36:09.636Z,12.23
2023-01-01T06:38:39.664Z,12.20
2023-01-01T06:41:10.462Z,12.19
2023-01-01T06:43:36.918Z,12.18
2023-01-01T06:46:26.008Z,12.18
2023-01-01T06:48:58.141Z,12.18
2023-01-01T06:51:32.447Z,12.17
2023-01-01T06:54:00.036Z,12.14
2023-01-01T06:56:27.204Z,12.10
2023-01-01T06:58:53.585Z,12.08
2023-01-01T07:01:25.794Z,12.07
2023-01-01T07:03:54.446Z,12.03
2023-01-01T07:06:21.902Z,12.03
2023-01-01T07:08:48.749Z,12.04
2023-01-01T07:11:15.264Z,12.01
2023-01-01T07:13:41.871Z,12.01
2023-01-01T07:16:12.635Z,12.00
2023-01-01T07:18:40.521Z,11.97
2023-01-01T07:21:28.271Z,11.93
2023-01-01T07:23:58.911Z,11.91
2023-01-01T07:26:26.581Z,11.89
2023-01-01T07:28:59.618Z,11.88
2023-01-01T07:31:33.753Z,11.88
2023-01-01T07:34:02.203Z,11.85
2023-01-01T07:36:31.661Z,11.82
2023-01-01T07:39:00.304Z,11.80
2023-01-01T07:41:37.394Z,11.80
2023-01-01T07:44:04.772Z,11.75
2023-01-01T07:46:31.352Z,11.73
2023-01-01T07:48:58.912Z,11.71
2023-01-01T07:51:25.442Z,11.69
2023-01-01T07:53:52.129Z,11.65
2023-01-01T07:56:18.777Z,11.62
2023-01-01T07:58:45.226Z,11.61
2023-01-01T08:01:13.576Z,11.58
2023-01-01T08:03:40.149Z,11.57
2023-01-01T08:06:12.112Z,11.52
2023-01-01T08:08:38.949Z,11.54
2023-01-01T08:11:05.931Z,11.50
2023-01-01T08:13:32.354Z,11.49
2023-01-01T08:15:59.172Z,11.45
2023-01-01T08:18:25.798Z,11.42
2023-01-01T08:20:52.287Z,11.40
2023-01-01T08:23:18.665Z,11.38
2023-01-01T08:25:45.022Z,11.34
2023-01-01T08:28:11.402Z,11.31
2023-01-01T08:30:39.944Z,11.30
2023-01-01T08:33:06.300Z,11.29
2023-01-01T08:35:42.525Z,11.27
2023-01-01T08:38:11.596Z,11.28
2023-01-01T08:40:39.197Z,11.27
2023-01-01T08:43:05.635Z,11.27
2023-01-01T08:45:32.038Z,11.25
2023-01-01T08:47:58.462Z,11.25
2023-01-01T08:50:26.302Z,11.26
2023-01-01T08:52:52.692Z,11.28
2023-01-01T08:55:19.134Z,11.28
2023-01-01T08:57:45.501Z,11.29
2023-01-01T09:00:13.585Z,11.28
2023-01-01T09:02:40.109Z,11.29
2023-01-01T09:05:07.213Z,11.28
2023-01-01T09:07:33.725Z,11.27
2023-01-01T09:10:00.119Z,11.27
2023-01-01T09:12:27.643Z,11.30
2023-01-01T09:14:54.013Z,11.32
2023-01-01T09:17:20.380Z,11.31
2023-01-01T09:19:46.750Z,11.33
2023-01-01T09:22:13.505Z,11.33
2023-01-01T09:24:40.950Z,11.32
2023-01-01T09:27:07.355Z,11.34
2023-01-01T09:29:33.839Z,11.34
2023-01-01T09:32:00.421Z,11.35
2023-01-01T09:34:26.890Z,11.36
2023-01-01T09:36:53.274Z,11.37
2023-01-01T09:39:19.637Z,11.42
2023-01-01T09:42:07.590Z,11.49
2023-01-01T09:44:53.344Z,11.56
2023-01-01T09:47:42.919Z,11.60
2023-01-01T09:50:39.994Z,11.63
2023-01-01T09:53:13.859Z,11.68
2023-01-01T09:55:52.661Z,11.74
2023-01-01T09:58:26.440Z,11.83
2023-01-01T10:00:55.908Z,11.89
2023-01-01T10:03:52.882Z,11.97
2023-01-01T10:06:24.478Z,12.06
2023-01-01T10:09:04.996Z,12.07
2023-01-01T10:11:52.726Z,12.06
2023-01-01T10:14:25.134Z,12.05
2023-01-01T10:16:55.450Z,12.06
2023-01-01T10:19:39.966Z,12.06
2023-01-01T10:22:16.818Z,12.04
2023-01-01T10:24:48.643Z,12.05
2023-01-01T10:27:44.260Z,12.05
2023-01-01T10:30:20.384Z,12.07
2023-01-01T10:32:52.273Z,12.10
2023-01-01T10:35:31.358Z,12.09
2023-01-01T10:38:02.369Z,12.09
2023-01-01T10:40:30.608Z,12.15
2023-01-01T10:42:59.207Z,12.22
2023-01-01T10:45:36.644Z,12.31
2023-01-01T10:48:15.250Z,12.47
2023-01-01T10:50:54.646Z,12.62
2023-01-01T10:53:49.383Z,12.85
2023-01-01T10:56:21.506Z,12.76
2023-01-01T10:58:50.854Z,12.76
2023-01-01T11:01:28.575Z,12.67
2023-01-01T11:03:59.489Z,12.58
2023-01-01T11:06:36.329Z,12.49
2023-01-01T11:09:07.022Z,12.42
2023-01-01T11:11:45.796Z,12.38
2023-01-01T11:14:21.803Z,12.39
2023-01-01T11:16:49.424Z,12.44
2023-01-01T11:19:28.768Z,12.39
2023-01-01T11:21:55.528Z,12.38
2023-01-01T11:24:30.312Z,12.38
2023-01-01T11:27:22.892Z,12.36
2023-01-01T11:29:51.460Z,12.33
2023-01-01T11:32:23.969Z,12.31
2023-01-01T11:35:00.363Z,12.29
2023-01-01T11:37:30.238Z,12.27
2023-01-01T11:39:58.465Z,12.23
2023-01-01T11:42:36.835Z,12.23
2023-01-01T11:45:09.685Z,12.18
2023-01-01T11:47:40.696Z,12.18
2023-01-01T11:50:38.070Z,12.19
2023-01-01T11:53:18.384Z,12.19
2023-01-01T11:56:10.190Z,12.19
2023-01-01T11:58:36.501Z,12.19
2023-01-01T12:01:24.704Z,12.21
2023-01-01T12:04:15.479Z,12.21
2023-01-01T12:06:57.519Z,12.23
2023-01-01T12:09:46.409Z,12.25
2023-01-01T12:12:20.926Z,12.32
2023-01-01T12:14:59.220Z,12.37
2023-01-01T12:17:36.621Z,12.45
2023-01-01T12:20:16.451Z,12.49
2023-01-01T12:22:42.950Z,12.67
2023-01-01T12:25:13.991Z,12.84
2023-01-01T12:28:00.789Z,12.81
2023-01-01T12:30:51.229Z,12.79
2023-01-01T12:33:27.697Z,12.76
2023-01-01T12:36:11.545Z,12.72
2023-01-01T12:39:22.923Z,12.72
2023-01-01T12:41:56.285Z,12.68
2023-01-01T12:45:07.539Z,12.69
2023-01-01T12:47:49.760Z,12.68
2023-01-01T12:50:38.150Z,12.66
2023-01-01T12:53:38.403Z,12.66
2023-01-01T12:56:16.223Z,12.63
2023-01-01T12:58:54.588Z,12.63
2023-01-01T13:01:29.893Z,12.62
2023-01-01T13:04:02.239Z,12.58
2023-01-01T13:06:40.489Z,12.57
2023-01-01T13:09:30.466Z,12.54
2023-01-01T13:12:00.413Z,12.51
2023-01-01T13:14:27.172Z,12.50
2023-01-01T13:16:57.925Z,12.51
2023-01-01T13:19:25.780Z,12.50
2023-01-01T13:21:52.323Z,12.49
2023-01-01T13:24:24.868Z,12.49
2023-01-01T13:26:52.734Z,12.50
2023-01-01T13:29:19.009Z,12.49
2023-01-01T13:31:48.425Z,12.49
2023-01-01T13:34:30.203Z,12.49
2023-01-01T13:37:14.945Z,12.48
2023-01-01T13:39:57.760Z,12.46
2023-01-01T13:42:51.717Z,12.44
2023-01-01T13:48:49.410Z,12.39
2023-01-01T13:52:03.415Z,12.39
2023-01-01T13:54:56.313Z,12.38
2023-01-01T13:57:43.562Z,12.35
2023-01-01T14:00:22.779Z,12.35
2023-01-01T14:03:07.936Z,12.31
2023-01-01T14:05:39.307Z,12.31
2023-01-01T14:08:11.532Z,12.31
2023-01-01T14:10:39.423Z,12.28
2023-01-01T14:13:05.738Z,12.26
2023-01-01T14:15:34.169Z,12.27
2023-01-01T14:18:04.541Z,12.25
2023-01-01T14:20:40.889Z,12.23
2023-01-01T14:23:11.670Z,12.21
2023-01-01T14:25:41.331Z,12.22
2023-01-01T14:28:17.847Z,12.20
2023-01-01T14:30:44.569Z,12.20
2023-01-01T14:33:21.904Z,12.19
2023-01-01T14:35:53.655Z,12.17
2023-01-01T14:38:34.123Z,12.14
2023-01-01T14:41:21.662Z,12.12
2023-01-01T14:43:50.545Z,12.12
2023-01-01T14:46:20.119Z,12.12
2023-01-01T14:48:49.633Z,12.09
2023-01-01T14:51:20.793Z,12.10
2023-01-01T14:53:48.498Z,12.10
2023-01-01T14:56:23.703Z,12.08
2023-01-01T14:58:50.432Z,12.08
2023-01-01T15:01:23.474Z,12.07
2023-01-01T15:04:01.843Z,12.04
2023-01-01T15:06:29.423Z,12.03
2023-01-01T15:08:56.502Z,12.01
2023-01-01T15:11:28.552Z,11.98
2023-01-01T15:14:00.263Z,11.95
2023-01-01T15:16:28.102Z,11.93
2023-01-01T15:18:57.698Z,11.91
2023-01-01T15:21:35.561Z,11.88
2023-01-01T15:24:20.477Z,11.86
2023-01-01T15:26:51.456Z,11.84
2023-01-01T15:29:32.091Z,11.79
2023-01-01T15:32:02.575Z,11.80
2023-01-01T15:34:52.576Z,11.78
2023-01-01T15:37:31.089Z,11.76
2023-01-01T15:39:59.757Z,11.72
2023-01-01T15:42:32.590Z,11.70
2023-01-01T15:45:17.231Z,11.69
2023-01-01T15:47:44.099Z,11.67
2023-01-01T15:50:19.695Z,11.67
2023-01-01T15:52:55.234Z,11.64
2023-01-01T15:55:22.427Z,11.62
2023-01-01T15:57:50.877Z,11.65
2023-01-01T16:00:22.952Z,11.64
2023-01-01T16:02:57.100Z,11.63
2023-01-01T16:05:26.300Z,11.64
2023-01-01T16:08:01.825Z,11.61
2023-01-01T16:10:28.702Z,11.63
2023-01-01T16:12:55.194Z,11.63
2023-01-01T16:15:21.575Z,11.63
2023-01-01T16:17:47.963Z,11.64
2023-01-01T16:20:19.928Z,11.65
2023-01-01T16:22:49.225Z,11.65
2023-01-01T16:25:17.817Z,11.64
2023-01-01T16:27:44.348Z,11.67
2023-01-01T16:30:11.988Z,11.66
2023-01-01T16:32:38.879Z,11.66
2023-01-01T16:35:11.765Z,11.65
2023-01-01T16:37:38.880Z,11.65
2023-01-01T16:40:06.401Z,11.65
2023-01-01T16:42:32.781Z,11.65
2023-01-01T16:44:59.248Z,11.67
2023-01-01T16:47:26.698Z,11.65
2023-01-01T16:49:53.084Z,11.62
2023-01-01T16:52:21.835Z,11.62
2023-01-01T16:54:48.247Z,11.59
2023-01-01T16:57:14.646Z,11.59
2023-01-01T16:59:41.014Z,11.58
2023-01-01T17:02:11.073Z,11.59
2023-01-01T17:04:37.620Z,11.60
2023-01-01T17:07:03.994Z,11.60
2023-01-01T17:09:32.804Z,11.61
2023-01-01T17:12:00.335Z,11.58
2023-01-01T17:14:26.722Z,11.58
2023-01-01T17:16:55.286Z,11.59
2023-01-01T17:19:23.347Z,11.59
2023-01-01T17:21:50.119Z,11.58
2023-01-01T17:24:21.739Z,11.58
2023-01-01T17:26:53.071Z,11.58
2023-01-01T17:29:23.440Z,11.60
2023-01-01T17:31:50.430Z,11.59
2023-01-01T17:34:17.221Z,11.58
2023-01-01T17:36:44.807Z,11.58
2023-01-01T17:39:15.076Z,11.55
2023-01-01T17:41:42.944Z,11.54
2023-01-01T17:44:09.786Z,11.50
2023-01-01T17:46:36.220Z,11.47
2023-01-01T17:49:10.185Z,11.47
2023-01-01T17:51:37.072Z,11.44
2023-01-01T17:54:04.649Z,11.40
2023-01-01T17:56:33.318Z,11.36
2023-01-01T17:58:59.734Z,11.37
2023-01-01T18:01:31.316Z,11.35
2023-01-01T18:04:06.834Z,11.29
2023-01-01T18:06:41.107Z,11.27
2023-01-01T18:09:11.738Z,11.25
2023-01-01T18:11:38.606Z,11.25
2023-01-01T18:14:08.426Z,11.22
2023-01-01T18:16:37.571Z,11.19
2023-01-01T18:19:05.366Z,11.14
2023-01-01T18:21:33.268Z,11.12
2023-01-01T18:24:00.419Z,11.08
2023-01-01T18:26:31.011Z,11.07
2023-01-01T18:29:01.933Z,11.07
2023-01-01T18:31:34.731Z,11.04
2023-01-01T18:34:03.311Z,11.00
2023-01-01T18:36:31.701Z,10.99
2023-01-01T18:39:22.165Z,10.92
2023-01-01T18:41:48.515Z,10.91
2023-01-01T18:44:26.504Z,10.87
2023-01-01T18:46:58.189Z,10.89
2023-01-01T18:49:27.957Z,10.87
2023-01-01T18:51:57.008Z,10.86
2023-01-01T18:54:24.610Z,10.89
2023-01-01T18:57:00.623Z,10.88
2023-01-01T18:59:26.973Z,10.87
2023-01-01T19:01:53.562Z,10.88
2023-01-01T19:04:20.114Z,10.87
2023-01-01T19:06:46.951Z,10.86
2023-01-01T19:09:23.275Z,10.85
2023-01-01T19:11:54.548Z,10.84
2023-01-01T19:14:25.610Z,10.83
2023-01-01T19:17:12.694Z,10.83
2023-01-01T19:19:42.539Z,10.83
2023-01-01T19:22:16.821Z,10.81
2023-01-01T19:24:44.778Z,10.82
2023-01-01T19:27:17.472Z,10.78
2023-01-01T19:29:46.645Z,10.76
2023-01-01T19:32:22.205Z,10.76
2023-01-01T19:34:48.578Z,10.78
2023-01-01T19:37:14.996Z,10.78
2023-01-01T19:39:43.794Z,10.76
2023-01-01T19:42:11.350Z,10.73
2023-01-01T19:44:40.061Z,10.71
2023-01-01T19:47:07.679Z,10.72
2023-01-01T19:49:34.068Z,10.73
2023-01-01T19:52:00.454Z,10.74
2023-01-01T19:54:26.922Z,10.72
2023-01-01T19:56:54.585Z,10.71
2023-01-01T19:59:21.084Z,10.72
2023-01-01T20:02:03.273Z,10.72
2023-01-01T20:04:33.990Z,10.74
2023-01-01T20:07:02.896Z,10.77
2023-01-01T20:09:29.356Z,10.76
2023-01-01T20:11:55.717Z,10.77
2023-01-01T20:14:22.083Z,10.76
2023-01-01T20:16:53.300Z,10.77
2023-01-01T20:19:20.138Z,10.74
2023-01-01T20:22:05.174Z,10.74
2023-01-01T20:24:31.592Z,10.74
2023-01-01T20:26:57.970Z,10.73
2023-01-01T20:29:24.517Z,10.71
2023-01-01T20:31:53.063Z,10.70
2023-01-01T20:34:19.621Z,10.73
2023-01-01T20:37:07.739Z,10.72
2023-01-01T20:39:34.277Z,10.72
2023-01-01T20:42:00.735Z,10.73
2023-01-01T20:44:27.135Z,10.72
2023-01-01T20:46:53.840Z,10.70
2023-01-01T20:49:21.087Z,10.69
2023-01-01T20:51:52.937Z,10.67
2023-01-01T20:54:20.779Z,10.69
2023-01-01T20:56:47.762Z,10.71
2023-01-01T21:02:02.574Z,10.67
2023-01-01T21:04:33.238Z,10.66
2023-01-01T21:07:02.441Z,10.68
2023-01-01T21:09:28.822Z,10.69
2023-01-01T21:12:23.999Z,10.70
2023-01-01T21:14:54.177Z,10.71
2023-01-01T21:17:23.045Z,10.70
2023-01-01T21:19:55.972Z,10.70
2023-01-01T21:22:27.343Z,10.65
2023-01-01T21:24:55.440Z,10.63
2023-01-01T21:27:33.791Z,10.63
2023-01-01T21:30:00.777Z,10.63
2023-01-01T21:32:39.699Z,10.62
2023-01-01T21:35:51.695Z,10.65
2023-01-01T21:38:31.368Z,10.68
2023-01-01T21:40:59.561Z,10.66
2023-01-01T21:43:29.458Z,10.66
2023-01-01T21:46:02.279Z,10.65
2023-01-01T21:48:31.425Z,10.65
2023-01-01T21:50:58.772Z,10.66
2023-01-01T21:53:36.986Z,10.67
2023-01-01T21:56:30.673Z,10.70
2023-01-01T21:59:28.067Z,10.68
2023-01-01T22:02:09.910Z,10.69
2023-01-01T22:04:44.102Z,10.68
2023-01-01T22:10:34.241Z,10.65
2023-01-01T22:13:01.042Z,10.65
2023-01-01T22:15:39.309Z,10.64
2023-01-01T22:18:27.998Z,10.62
2023-01-01T22:21:02.630Z,10.62
2023-01-01T22:23:37.189Z,10.61
2023-01-01T22:26:14.484Z,10.63
2023-01-01T22:28:44.657Z,10.64
2023-01-01T22:31:18.238Z,10.63
2023-01-01T22:33:47.339Z,10.63
2023-01-01T22:36:22.283Z,10.63
2023-01-01T22:38:58.483Z,10.62
2023-01-01T22:41:24.991Z,10.61
2023-01-01T22:44:03.560Z,10.64
2023-01-01T22:46:35.826Z,10.65
2023-01-01T22:49:14.760Z,10.67
2023-01-01T22:51:43.299Z,10.71
2023-01-01T22:54:12.066Z,10.73
2023-01-01T22:56:38.445Z,10.75
2023-01-01T22:59:04.804Z,10.77
2023-01-01T23:01:31.338Z,10.77
2023-01-01T23:04:08.898Z,10.76
2023-01-01T23:06:39.399Z,10.79
2023-01-01T23:09:06.321Z,10.80
2023-01-01T23:11:32.758Z,10.80
2023-01-01T23:14:17.831Z,10.81
2023-01-01T23:16:52.017Z,10.75
2023-01-01T23:19:18.353Z,10.78
2023-01-01T23:21:45.311Z,10.76
2023-01-01T23:24:15.332Z,10.77
2023-01-01T23:26:42.693Z,10.78
2023-01-01T23:29:11.249Z,10.75
2023-01-01T23:31:39.205Z,10.75
2023-01-01T23:34:06.172Z,10.75
2023-01-01T23:36:33.816Z,10.76
2023-01-01T23:39:08.303Z,10.76
2023-01-01T23:41:34.903Z,10.78
2023-01-01T23:44:01.251Z,10.80
2023-01-01T23:46:28.813Z,10.82
2023-01-01T23:48:55.336Z,10.82
2023-01-01T23:51:22.818Z,10.81
2023-01-01T23:53:52.359Z,10.83
2023-01-01T23:56:23.905Z,10.85
2023-01-01T23:58:53.527Z,10.86
